sensor_id;sensor_type;location;lat;lon;timestamp;temperature;humidity
10538;DHT22;5317;49.048;8.468;2023-11-22T00:04:23;13.40;83.40
10538;DHT22;5317;49.048;8.468;2023-11-22T00:06:51;13.20;83.80
10538;DHT22;5317;49.048;8.468;2023-11-22T00:09:18;13.30;83.90
10538;DHT22;5317;49.048;8.468;2023-11-22T00:11:49;13.20;83.90
10538;DHT22;5317;49.048;8.468;2023-11-22T00:14:16;13.20;83.70
10538;DHT22;5317;49.048;8.468;2023-11-22T00:16:43;13.20;83.40
10538;DHT22;5317;49.048;8.468;2023-11-22T00:19:10;13.20;83.40
10538;DHT22;5317;49.048;8.468;2023-11-22T00:21:37;13.20;83.40
10538;DHT22;5317;49.048;8.468;2023-11-22T00:24:05;13.20;82.90
10538;DHT22;5317;49.048;8.468;2023-11-22T00:26:32;13.00;82.60
10538;DHT22;5317;49.048;8.468;2023-11-22T00:29:01;13.00;83.20
10538;DHT22;5317;49.048;8.468;2023-11-22T00:31:28;12.90;82.80
10538;DHT22;5317;49.048;8.468;2023-11-22T00:33:55;12.90;83.20
10538;DHT22;5317;49.048;8.468;2023-11-22T00:36:22;12.90;83.40
10538;DHT22;5317;49.048;8.468;2023-11-22T00:38:49;12.80;82.90
10538;DHT22;5317;49.048;8.468;2023-11-22T00:41:17;12.70;82.90
10538;DHT22;5317;49.048;8.468;2023-11-22T00:43:44;12.60;82.80
10538;DHT22;5317;49.048;8.468;2023-11-22T00:46:13;12.60;83.00
10538;DHT22;5317;49.048;8.468;2023-11-22T00:48:40;12.60;82.90
10538;DHT22;5317;49.048;8.468;2023-11-22T00:51:07;12.60;83.10
10538;DHT22;5317;49.048;8.468;2023-11-22T00:53:36;12.70;83.20
10538;DHT22;5317;49.048;8.468;2023-11-22T00:56:03;12.60;83.10
10538;DHT22;5317;49.048;8.468;2023-11-22T00:58:31;12.60;83.00
10538;DHT22;5317;49.048;8.468;2023-11-22T01:00:58;12.60;82.70
10538;DHT22;5317;49.048;8.468;2023-11-22T01:03:27;12.60;82.60
10538;DHT22;5317;49.048;8.468;2023-11-22T01:05:53;12.50;82.60
10538;DHT22;5317;49.048;8.468;2023-11-22T01:08:20;12.50;82.60
10538;DHT22;5317;49.048;8.468;2023-11-22T01:10:47;12.50;82.70
10538;DHT22;5317;49.048;8.468;2023-11-22T01:13:14;12.40;82.30
10538;DHT22;5317;49.048;8.468;2023-11-22T01:15:41;12.40;82.30
10538;DHT22;5317;49.048;8.468;2023-11-22T01:18:10;12.30;82.30
10538;DHT22;5317;49.048;8.468;2023-11-22T01:20:38;12.30;82.10
10538;DHT22;5317;49.048;8.468;2023-11-22T01:23:05;12.30;82.00
10538;DHT22;5317;49.048;8.468;2023-11-22T01:25:31;12.20;82.00
10538;DHT22;5317;49.048;8.468;2023-11-22T01:27:58;12.20;81.80
10538;DHT22;5317;49.048;8.468;2023-11-22T01:30:26;12.10;81.70
10538;DHT22;5317;49.048;8.468;2023-11-22T01:32:54;12.10;81.70
10538;DHT22;5317;49.048;8.468;2023-11-22T01:35:21;12.10;81.90
10538;DHT22;5317;49.048;8.468;2023-11-22T01:37:50;12.10;81.90
10538;DHT22;5317;49.048;8.468;2023-11-22T01:40:17;12.10;81.90
10538;DHT22;5317;49.048;8.468;2023-11-22T01:42:45;12.00;81.70
10538;DHT22;5317;49.048;8.468;2023-11-22T01:45:12;12.00;81.90
10538;DHT22;5317;49.048;8.468;2023-11-22T01:47:39;11.90;81.70
10538;DHT22;5317;49.048;8.468;2023-11-22T01:50:07;11.90;81.90
10538;DHT22;5317;49.048;8.468;2023-11-22T01:52:35;11.80;81.50
10538;DHT22;5317;49.048;8.468;2023-11-22T01:55:04;11.80;81.30
10538;DHT22;5317;49.048;8.468;2023-11-22T01:57:31;11.70;81.30
10538;DHT22;5317;49.048;8.468;2023-11-22T02:00:00;11.70;81.30
10538;DHT22;5317;49.048;8.468;2023-11-22T02:02:27;11.70;81.40
10538;DHT22;5317;49.048;8.468;2023-11-22T02:04:53;11.70;81.00
10538;DHT22;5317;49.048;8.468;2023-11-22T02:07:20;11.70;80.70
10538;DHT22;5317;49.048;8.468;2023-11-22T02:09:50;11.60;80.40
10538;DHT22;5317;49.048;8.468;2023-11-22T02:12:19;11.60;80.10
10538;DHT22;5317;49.048;8.468;2023-11-22T02:14:47;11.60;79.70
10538;DHT22;5317;49.048;8.468;2023-11-22T02:17:15;11.60;79.60
10538;DHT22;5317;49.048;8.468;2023-11-22T02:19:43;11.60;79.60
10538;DHT22;5317;49.048;8.468;2023-11-22T02:22:10;11.60;80.10
10538;DHT22;5317;49.048;8.468;2023-11-22T02:24:38;11.60;79.70
10538;DHT22;5317;49.048;8.468;2023-11-22T02:27:05;11.60;79.70
10538;DHT22;5317;49.048;8.468;2023-11-22T02:29:32;11.60;79.20
10538;DHT22;5317;49.048;8.468;2023-11-22T02:31:59;11.50;79.00
10538;DHT22;5317;49.048;8.468;2023-11-22T02:34:26;11.50;79.00
10538;DHT22;5317;49.048;8.468;2023-11-22T02:36:53;11.50;79.80
10538;DHT22;5317;49.048;8.468;2023-11-22T02:39:20;11.50;79.40
10538;DHT22;5317;49.048;8.468;2023-11-22T02:41:49;11.50;79.30
10538;DHT22;5317;49.048;8.468;2023-11-22T02:44:15;11.50;79.20
10538;DHT22;5317;49.048;8.468;2023-11-22T02:46:43;11.50;79.40
10538;DHT22;5317;49.048;8.468;2023-11-22T02:49:09;11.40;80.00
10538;DHT22;5317;49.048;8.468;2023-11-22T02:51:37;11.40;79.50
10538;DHT22;5317;49.048;8.468;2023-11-22T02:54:04;11.40;79.50
10538;DHT22;5317;49.048;8.468;2023-11-22T02:56:31;11.40;79.80
10538;DHT22;5317;49.048;8.468;2023-11-22T02:58:59;11.40;80.00
10538;DHT22;5317;49.048;8.468;2023-11-22T03:01:26;11.40;80.10
10538;DHT22;5317;49.048;8.468;2023-11-22T03:03:52;11.40;80.00
10538;DHT22;5317;49.048;8.468;2023-11-22T03:06:19;11.40;80.20
10538;DHT22;5317;49.048;8.468;2023-11-22T03:08:46;11.40;80.30
10538;DHT22;5317;49.048;8.468;2023-11-22T03:11:13;11.40;80.50
10538;DHT22;5317;49.048;8.468;2023-11-22T03:13:40;11.40;80.40
10538;DHT22;5317;49.048;8.468;2023-11-22T03:16:09;11.40;80.40
10538;DHT22;5317;49.048;8.468;2023-11-22T03:18:36;11.40;79.80
10538;DHT22;5317;49.048;8.468;2023-11-22T03:21:03;11.40;80.50
10538;DHT22;5317;49.048;8.468;2023-11-22T03:23:31;11.40;79.60
10538;DHT22;5317;49.048;8.468;2023-11-22T03:25:57;11.40;79.40
10538;DHT22;5317;49.048;8.468;2023-11-22T03:28:25;11.40;79.10
10538;DHT22;5317;49.048;8.468;2023-11-22T03:30:51;11.40;79.00
10538;DHT22;5317;49.048;8.468;2023-11-22T03:33:20;11.40;79.20
10538;DHT22;5317;49.048;8.468;2023-11-22T03:35:46;11.40;79.20
10538;DHT22;5317;49.048;8.468;2023-11-22T03:38:13;11.40;79.40
10538;DHT22;5317;49.048;8.468;2023-11-22T03:40:40;11.30;79.40
10538;DHT22;5317;49.048;8.468;2023-11-22T03:43:07;11.30;79.40
10538;DHT22;5317;49.048;8.468;2023-11-22T03:45:35;11.30;79.20
10538;DHT22;5317;49.048;8.468;2023-11-22T03:48:02;11.30;79.20
10538;DHT22;5317;49.048;8.468;2023-11-22T03:50:30;11.30;79.00
10538;DHT22;5317;49.048;8.468;2023-11-22T03:52:57;11.20;78.90
10538;DHT22;5317;49.048;8.468;2023-11-22T03:55:24;11.20;78.80
10538;DHT22;5317;49.048;8.468;2023-11-22T03:57:51;11.20;78.50
10538;DHT22;5317;49.048;8.468;2023-11-22T04:00:18;11.20;78.20
10538;DHT22;5317;49.048;8.468;2023-11-22T04:02:45;11.10;78.30
10538;DHT22;5317;49.048;8.468;2023-11-22T04:05:12;11.10;78.30
10538;DHT22;5317;49.048;8.468;2023-11-22T04:07:40;11.10;79.00
10538;DHT22;5317;49.048;8.468;2023-11-22T04:10:08;11.10;77.90
10538;DHT22;5317;49.048;8.468;2023-11-22T04:12:35;11.00;77.40
10538;DHT22;5317;49.048;8.468;2023-11-22T04:15:03;11.00;77.10
10538;DHT22;5317;49.048;8.468;2023-11-22T04:17:35;11.00;77.00
10538;DHT22;5317;49.048;8.468;2023-11-22T04:20:04;10.90;77.00
10538;DHT22;5317;49.048;8.468;2023-11-22T04:22:34;10.90;76.90
10538;DHT22;5317;49.048;8.468;2023-11-22T04:25:02;10.90;77.00
10538;DHT22;5317;49.048;8.468;2023-11-22T04:27:30;10.90;76.20
10538;DHT22;5317;49.048;8.468;2023-11-22T04:29:56;10.90;75.90
10538;DHT22;5317;49.048;8.468;2023-11-22T04:32:23;10.90;75.80
10538;DHT22;5317;49.048;8.468;2023-11-22T04:34:50;10.80;75.60
10538;DHT22;5317;49.048;8.468;2023-11-22T04:37:17;10.80;75.80
10538;DHT22;5317;49.048;8.468;2023-11-22T04:39:44;10.70;75.80
10538;DHT22;5317;49.048;8.468;2023-11-22T04:42:12;10.70;75.60
10538;DHT22;5317;49.048;8.468;2023-11-22T04:44:39;10.70;75.60
10538;DHT22;5317;49.048;8.468;2023-11-22T04:47:05;10.60;75.50
10538;DHT22;5317;49.048;8.468;2023-11-22T04:49:32;10.60;75.50
10538;DHT22;5317;49.048;8.468;2023-11-22T04:51:59;10.50;75.20
10538;DHT22;5317;49.048;8.468;2023-11-22T04:54:26;10.60;75.30
10538;DHT22;5317;49.048;8.468;2023-11-22T04:56:54;10.50;75.20
10538;DHT22;5317;49.048;8.468;2023-11-22T04:59:22;10.40;74.70
10538;DHT22;5317;49.048;8.468;2023-11-22T05:01:49;10.40;74.30
10538;DHT22;5317;49.048;8.468;2023-11-22T05:04:16;10.30;74.40
10538;DHT22;5317;49.048;8.468;2023-11-22T05:06:44;10.20;74.10
10538;DHT22;5317;49.048;8.468;2023-11-22T05:09:11;10.20;74.30
10538;DHT22;5317;49.048;8.468;2023-11-22T05:11:39;10.20;74.10
10538;DHT22;5317;49.048;8.468;2023-11-22T05:14:07;10.10;74.10
10538;DHT22;5317;49.048;8.468;2023-11-22T05:16:35;10.10;74.20
10538;DHT22;5317;49.048;8.468;2023-11-22T05:19:03;10.00;74.20
10538;DHT22;5317;49.048;8.468;2023-11-22T05:21:29;10.00;74.10
10538;DHT22;5317;49.048;8.468;2023-11-22T05:23:56;9.90;75.00
10538;DHT22;5317;49.048;8.468;2023-11-22T05:26:23;9.90;75.00
10538;DHT22;5317;49.048;8.468;2023-11-22T05:28:50;9.90;75.00
10538;DHT22;5317;49.048;8.468;2023-11-22T05:31:19;9.90;75.00
10538;DHT22;5317;49.048;8.468;2023-11-22T05:33:47;9.90;74.80
10538;DHT22;5317;49.048;8.468;2023-11-22T05:36:14;9.80;74.60
10538;DHT22;5317;49.048;8.468;2023-11-22T05:38:42;9.80;74.60
10538;DHT22;5317;49.048;8.468;2023-11-22T05:41:09;9.80;74.60
10538;DHT22;5317;49.048;8.468;2023-11-22T05:43:36;9.80;74.40
10538;DHT22;5317;49.048;8.468;2023-11-22T05:46:03;9.70;74.60
10538;DHT22;5317;49.048;8.468;2023-11-22T05:48:30;9.70;74.40
10538;DHT22;5317;49.048;8.468;2023-11-22T05:50:58;9.60;74.60
10538;DHT22;5317;49.048;8.468;2023-11-22T05:53:25;9.60;74.70
10538;DHT22;5317;49.048;8.468;2023-11-22T05:55:52;9.60;74.70
10538;DHT22;5317;49.048;8.468;2023-11-22T05:58:19;9.60;74.40
10538;DHT22;5317;49.048;8.468;2023-11-22T06:00:47;9.50;74.20
10538;DHT22;5317;49.048;8.468;2023-11-22T06:03:14;9.50;73.90
10538;DHT22;5317;49.048;8.468;2023-11-22T06:05:41;9.50;73.90
10538;DHT22;5317;49.048;8.468;2023-11-22T06:08:09;9.40;74.10
10538;DHT22;5317;49.048;8.468;2023-11-22T06:10:36;9.30;74.30
10538;DHT22;5317;49.048;8.468;2023-11-22T06:13:06;9.30;74.40
10538;DHT22;5317;49.048;8.468;2023-11-22T06:15:34;9.10;74.40
10538;DHT22;5317;49.048;8.468;2023-11-22T06:18:01;9.20;74.40
10538;DHT22;5317;49.048;8.468;2023-11-22T06:20:28;9.10;74.10
10538;DHT22;5317;49.048;8.468;2023-11-22T06:22:55;9.10;74.00
10538;DHT22;5317;49.048;8.468;2023-11-22T06:25:25;9.10;73.90
10538;DHT22;5317;49.048;8.468;2023-11-22T06:27:52;9.10;74.00
10538;DHT22;5317;49.048;8.468;2023-11-22T06:30:19;9.00;74.20
10538;DHT22;5317;49.048;8.468;2023-11-22T06:32:46;9.00;74.20
10538;DHT22;5317;49.048;8.468;2023-11-22T06:35:13;8.90;74.10
10538;DHT22;5317;49.048;8.468;2023-11-22T06:37:40;8.90;74.30
10538;DHT22;5317;49.048;8.468;2023-11-22T06:40:08;8.90;74.30
10538;DHT22;5317;49.048;8.468;2023-11-22T06:42:36;8.90;74.20
10538;DHT22;5317;49.048;8.468;2023-11-22T06:45:04;8.90;74.30
10538;DHT22;5317;49.048;8.468;2023-11-22T06:47:32;8.80;74.10
10538;DHT22;5317;49.048;8.468;2023-11-22T06:49:59;8.80;74.10
10538;DHT22;5317;49.048;8.468;2023-11-22T06:52:26;8.80;74.00
10538;DHT22;5317;49.048;8.468;2023-11-22T06:54:53;8.80;74.20
10538;DHT22;5317;49.048;8.468;2023-11-22T06:57:20;8.80;74.10
10538;DHT22;5317;49.048;8.468;2023-11-22T06:59:55;8.80;74.20
10538;DHT22;5317;49.048;8.468;2023-11-22T07:02:23;8.70;74.20
10538;DHT22;5317;49.048;8.468;2023-11-22T07:04:51;8.70;74.50
10538;DHT22;5317;49.048;8.468;2023-11-22T07:07:18;8.60;74.60
10538;DHT22;5317;49.048;8.468;2023-11-22T07:09:45;8.70;74.60
10538;DHT22;5317;49.048;8.468;2023-11-22T07:12:12;8.60;74.50
10538;DHT22;5317;49.048;8.468;2023-11-22T07:14:39;8.60;74.30
10538;DHT22;5317;49.048;8.468;2023-11-22T07:17:09;8.50;74.10
10538;DHT22;5317;49.048;8.468;2023-11-22T07:19:36;8.50;74.40
10538;DHT22;5317;49.048;8.468;2023-11-22T07:22:03;8.50;74.50
10538;DHT22;5317;49.048;8.468;2023-11-22T07:24:41;8.50;74.60
10538;DHT22;5317;49.048;8.468;2023-11-22T07:27:10;8.50;74.50
10538;DHT22;5317;49.048;8.468;2023-11-22T07:29:38;8.50;74.70
10538;DHT22;5317;49.048;8.468;2023-11-22T07:32:06;8.50;74.40
10538;DHT22;5317;49.048;8.468;2023-11-22T07:34:36;8.50;74.10
10538;DHT22;5317;49.048;8.468;2023-11-22T07:37:03;8.50;74.40
10538;DHT22;5317;49.048;8.468;2023-11-22T07:39:30;8.60;74.40
10538;DHT22;5317;49.048;8.468;2023-11-22T07:41:57;8.50;74.00
10538;DHT22;5317;49.048;8.468;2023-11-22T07:44:24;8.60;75.00
10538;DHT22;5317;49.048;8.468;2023-11-22T07:46:50;8.60;74.40
10538;DHT22;5317;49.048;8.468;2023-11-22T07:49:18;8.70;73.90
10538;DHT22;5317;49.048;8.468;2023-11-22T07:51:48;8.70;73.40
10538;DHT22;5317;49.048;8.468;2023-11-22T07:54:18;8.80;73.20
10538;DHT22;5317;49.048;8.468;2023-11-22T07:56:47;8.90;73.60
10538;DHT22;5317;49.048;8.468;2023-11-22T07:59:14;9.00;72.60
10538;DHT22;5317;49.048;8.468;2023-11-22T08:01:42;9.10;72.10
10538;DHT22;5317;49.048;8.468;2023-11-22T08:04:10;9.20;71.60
10538;DHT22;5317;49.048;8.468;2023-11-22T08:06:37;9.30;71.20
10538;DHT22;5317;49.048;8.468;2023-11-22T08:09:05;9.40;70.90
10538;DHT22;5317;49.048;8.468;2023-11-22T08:11:34;9.50;70.50
10538;DHT22;5317;49.048;8.468;2023-11-22T08:14:01;9.60;70.40
10538;DHT22;5317;49.048;8.468;2023-11-22T08:16:28;9.70;70.30
10538;DHT22;5317;49.048;8.468;2023-11-22T08:18:55;9.80;70.80
10538;DHT22;5317;49.048;8.468;2023-11-22T08:21:22;9.90;69.50
10538;DHT22;5317;49.048;8.468;2023-11-22T08:23:49;10.00;67.60
10538;DHT22;5317;49.048;8.468;2023-11-22T08:26:17;10.10;67.70
10538;DHT22;5317;49.048;8.468;2023-11-22T08:28:44;10.20;67.50
10538;DHT22;5317;49.048;8.468;2023-11-22T08:31:11;10.20;67.40
10538;DHT22;5317;49.048;8.468;2023-11-22T08:33:38;10.20;66.70
10538;DHT22;5317;49.048;8.468;2023-11-22T08:36:06;10.20;66.80
10538;DHT22;5317;49.048;8.468;2023-11-22T08:38:33;10.30;66.80
10538;DHT22;5317;49.048;8.468;2023-11-22T08:41:01;10.40;67.00
10538;DHT22;5317;49.048;8.468;2023-11-22T08:43:29;10.50;65.50
10538;DHT22;5317;49.048;8.468;2023-11-22T08:45:57;10.60;65.90
10538;DHT22;5317;49.048;8.468;2023-11-22T08:48:24;10.80;66.20
10538;DHT22;5317;49.048;8.468;2023-11-22T08:50:52;10.90;65.90
10538;DHT22;5317;49.048;8.468;2023-11-22T08:53:21;11.10;65.90
10538;DHT22;5317;49.048;8.468;2023-11-22T08:55:48;11.20;65.00
10538;DHT22;5317;49.048;8.468;2023-11-22T08:58:15;11.30;64.70
10538;DHT22;5317;49.048;8.468;2023-11-22T09:00:44;11.40;63.90
10538;DHT22;5317;49.048;8.468;2023-11-22T09:03:11;11.50;63.00
10538;DHT22;5317;49.048;8.468;2023-11-22T09:05:38;11.50;62.90
10538;DHT22;5317;49.048;8.468;2023-11-22T09:08:05;11.50;63.40
10538;DHT22;5317;49.048;8.468;2023-11-22T09:10:38;11.50;62.70
10538;DHT22;5317;49.048;8.468;2023-11-22T09:13:05;11.50;62.00
10538;DHT22;5317;49.048;8.468;2023-11-22T09:15:32;11.50;62.60
10538;DHT22;5317;49.048;8.468;2023-11-22T09:18:02;11.60;62.70
10538;DHT22;5317;49.048;8.468;2023-11-22T09:20:30;11.60;62.20
10538;DHT22;5317;49.048;8.468;2023-11-22T09:22:57;11.70;62.90
10538;DHT22;5317;49.048;8.468;2023-11-22T09:25:25;11.90;63.20
10538;DHT22;5317;49.048;8.468;2023-11-22T09:27:54;12.00;62.10
10538;DHT22;5317;49.048;8.468;2023-11-22T09:30:25;12.00;61.40
10538;DHT22;5317;49.048;8.468;2023-11-22T09:33:05;11.90;61.40
10538;DHT22;5317;49.048;8.468;2023-11-22T09:35:33;11.90;61.90
10538;DHT22;5317;49.048;8.468;2023-11-22T09:38:01;11.80;61.30
10538;DHT22;5317;49.048;8.468;2023-11-22T09:40:28;11.70;61.80
10538;DHT22;5317;49.048;8.468;2023-11-22T09:42:57;11.70;62.30
10538;DHT22;5317;49.048;8.468;2023-11-22T09:45:26;11.70;62.80
10538;DHT22;5317;49.048;8.468;2023-11-22T09:47:53;11.60;62.00
10538;DHT22;5317;49.048;8.468;2023-11-22T09:50:33;11.60;62.60
10538;DHT22;5317;49.048;8.468;2023-11-22T09:53:02;11.50;62.00
10538;DHT22;5317;49.048;8.468;2023-11-22T09:55:33;11.40;62.10
10538;DHT22;5317;49.048;8.468;2023-11-22T09:58:01;11.30;61.80
10538;DHT22;5317;49.048;8.468;2023-11-22T10:00:29;11.20;62.20
10538;DHT22;5317;49.048;8.468;2023-11-22T10:02:57;11.20;62.00
10538;DHT22;5317;49.048;8.468;2023-11-22T10:05:25;11.20;61.90
10538;DHT22;5317;49.048;8.468;2023-11-22T10:07:54;11.20;61.60
10538;DHT22;5317;49.048;8.468;2023-11-22T10:10:21;11.20;60.90
10538;DHT22;5317;49.048;8.468;2023-11-22T10:12:54;11.20;61.40
10538;DHT22;5317;49.048;8.468;2023-11-22T10:15:22;11.30;62.00
10538;DHT22;5317;49.048;8.468;2023-11-22T10:17:54;11.40;61.70
10538;DHT22;5317;49.048;8.468;2023-11-22T10:20:35;11.40;60.60
10538;DHT22;5317;49.048;8.468;2023-11-22T10:23:03;11.50;60.70
10538;DHT22;5317;49.048;8.468;2023-11-22T10:25:30;11.50;62.10
10538;DHT22;5317;49.048;8.468;2023-11-22T10:27:58;11.60;61.00
10538;DHT22;5317;49.048;8.468;2023-11-22T10:30:24;11.70;61.00
10538;DHT22;5317;49.048;8.468;2023-11-22T10:32:54;11.70;60.90
10538;DHT22;5317;49.048;8.468;2023-11-22T10:35:21;11.80;60.50
10538;DHT22;5317;49.048;8.468;2023-11-22T10:37:50;11.80;60.40
10538;DHT22;5317;49.048;8.468;2023-11-22T10:40:17;11.80;60.20
10538;DHT22;5317;49.048;8.468;2023-11-22T10:42:45;11.80;60.40
10538;DHT22;5317;49.048;8.468;2023-11-22T10:45:18;11.70;59.90
10538;DHT22;5317;49.048;8.468;2023-11-22T10:47:46;11.70;60.30
10538;DHT22;5317;49.048;8.468;2023-11-22T10:50:12;11.50;60.00
10538;DHT22;5317;49.048;8.468;2023-11-22T10:52:42;11.40;59.90
10538;DHT22;5317;49.048;8.468;2023-11-22T10:55:15;11.40;60.30
10538;DHT22;5317;49.048;8.468;2023-11-22T10:57:45;11.30;59.90
10538;DHT22;5317;49.048;8.468;2023-11-22T11:00:15;11.30;60.80
10538;DHT22;5317;49.048;8.468;2023-11-22T11:02:45;11.30;61.00
10538;DHT22;5317;49.048;8.468;2023-11-22T11:05:16;11.40;61.10
10538;DHT22;5317;49.048;8.468;2023-11-22T11:07:58;11.40;61.00
10538;DHT22;5317;49.048;8.468;2023-11-22T11:10:28;11.40;60.70
10538;DHT22;5317;49.048;8.468;2023-11-22T11:12:55;11.40;60.50
10538;DHT22;5317;49.048;8.468;2023-11-22T11:15:23;11.40;61.10
10538;DHT22;5317;49.048;8.468;2023-11-22T11:17:50;11.30;61.00
10538;DHT22;5317;49.048;8.468;2023-11-22T11:20:17;11.30;60.50
10538;DHT22;5317;49.048;8.468;2023-11-22T11:22:47;11.30;60.50
10538;DHT22;5317;49.048;8.468;2023-11-22T11:25:15;11.30;60.40
10538;DHT22;5317;49.048;8.468;2023-11-22T11:27:55;11.20;59.90
10538;DHT22;5317;49.048;8.468;2023-11-22T11:30:43;11.20;59.80
10538;DHT22;5317;49.048;8.468;2023-11-22T11:33:12;11.20;59.80
10538;DHT22;5317;49.048;8.468;2023-11-22T11:35:43;11.10;60.20
10538;DHT22;5317;49.048;8.468;2023-11-22T11:38:12;11.10;60.40
10538;DHT22;5317;49.048;8.468;2023-11-22T11:40:40;11.10;60.40
10538;DHT22;5317;49.048;8.468;2023-11-22T11:43:10;11.00;60.30
10538;DHT22;5317;49.048;8.468;2023-11-22T11:45:38;11.00;60.30
10538;DHT22;5317;49.048;8.468;2023-11-22T11:48:07;11.00;60.00
10538;DHT22;5317;49.048;8.468;2023-11-22T11:50:34;10.90;60.30
10538;DHT22;5317;49.048;8.468;2023-11-22T11:53:01;10.90;59.80
10538;DHT22;5317;49.048;8.468;2023-11-22T11:55:30;10.90;59.90
10538;DHT22;5317;49.048;8.468;2023-11-22T11:57:57;10.90;60.30
10538;DHT22;5317;49.048;8.468;2023-11-22T12:00:31;10.80;60.20
10538;DHT22;5317;49.048;8.468;2023-11-22T12:02:58;10.90;60.50
10538;DHT22;5317;49.048;8.468;2023-11-22T12:05:25;10.90;60.70
10538;DHT22;5317;49.048;8.468;2023-11-22T12:07:53;10.90;60.00
10538;DHT22;5317;49.048;8.468;2023-11-22T12:10:20;10.90;59.60
10538;DHT22;5317;49.048;8.468;2023-11-22T12:12:49;10.90;59.60
10538;DHT22;5317;49.048;8.468;2023-11-22T12:15:18;10.90;59.30
10538;DHT22;5317;49.048;8.468;2023-11-22T12:17:48;10.90;59.60
10538;DHT22;5317;49.048;8.468;2023-11-22T12:20:16;10.80;59.40
10538;DHT22;5317;49.048;8.468;2023-11-22T12:22:47;10.80;59.50
10538;DHT22;5317;49.048;8.468;2023-11-22T12:25:14;10.80;59.70
10538;DHT22;5317;49.048;8.468;2023-11-22T12:27:42;10.80;59.50
10538;DHT22;5317;49.048;8.468;2023-11-22T12:30:22;10.80;59.50
10538;DHT22;5317;49.048;8.468;2023-11-22T12:32:55;10.80;59.40
10538;DHT22;5317;49.048;8.468;2023-11-22T12:35:22;10.80;59.20
10538;DHT22;5317;49.048;8.468;2023-11-22T12:37:49;10.80;59.00
10538;DHT22;5317;49.048;8.468;2023-11-22T12:40:20;10.90;59.30
10538;DHT22;5317;49.048;8.468;2023-11-22T12:42:49;10.90;59.40
10538;DHT22;5317;49.048;8.468;2023-11-22T12:45:22;10.90;59.00
10538;DHT22;5317;49.048;8.468;2023-11-22T12:47:50;10.90;59.40
10538;DHT22;5317;49.048;8.468;2023-11-22T12:50:31;10.90;60.20
10538;DHT22;5317;49.048;8.468;2023-11-22T12:52:58;11.00;59.00
10538;DHT22;5317;49.048;8.468;2023-11-22T12:55:25;11.00;59.50
10538;DHT22;5317;49.048;8.468;2023-11-22T12:57:59;11.10;58.90
10538;DHT22;5317;49.048;8.468;2023-11-22T13:00:29;11.10;58.70
10538;DHT22;5317;49.048;8.468;2023-11-22T13:02:56;11.20;58.90
10538;DHT22;5317;49.048;8.468;2023-11-22T13:05:23;11.20;58.50
10538;DHT22;5317;49.048;8.468;2023-11-22T13:07:51;11.20;58.30
10538;DHT22;5317;49.048;8.468;2023-11-22T13:10:19;11.10;58.00
10538;DHT22;5317;49.048;8.468;2023-11-22T13:12:51;11.20;58.20
10538;DHT22;5317;49.048;8.468;2023-11-22T13:15:19;11.20;58.60
10538;DHT22;5317;49.048;8.468;2023-11-22T13:17:49;11.20;58.90
10538;DHT22;5317;49.048;8.468;2023-11-22T13:20:16;11.30;59.10
10538;DHT22;5317;49.048;8.468;2023-11-22T13:22:45;11.30;58.60
10538;DHT22;5317;49.048;8.468;2023-11-22T13:25:14;11.30;58.60
10538;DHT22;5317;49.048;8.468;2023-11-22T13:27:43;11.30;58.80
10538;DHT22;5317;49.048;8.468;2023-11-22T13:30:10;11.20;58.30
10538;DHT22;5317;49.048;8.468;2023-11-22T13:32:37;11.20;58.40
10538;DHT22;5317;49.048;8.468;2023-11-22T13:35:07;11.20;58.40
10538;DHT22;5317;49.048;8.468;2023-11-22T13:37:43;11.10;58.50
10538;DHT22;5317;49.048;8.468;2023-11-22T13:40:11;11.10;58.40
10538;DHT22;5317;49.048;8.468;2023-11-22T13:42:42;11.10;58.20
10538;DHT22;5317;49.048;8.468;2023-11-22T13:45:10;11.10;58.40
10538;DHT22;5317;49.048;8.468;2023-11-22T13:47:41;11.00;58.40
10538;DHT22;5317;49.048;8.468;2023-11-22T13:50:09;11.00;58.30
10538;DHT22;5317;49.048;8.468;2023-11-22T13:52:37;11.00;58.50
10538;DHT22;5317;49.048;8.468;2023-11-22T13:55:05;11.00;58.50
10538;DHT22;5317;49.048;8.468;2023-11-22T13:57:35;11.00;58.50
10538;DHT22;5317;49.048;8.468;2023-11-22T14:00:05;10.90;58.20
10538;DHT22;5317;49.048;8.468;2023-11-22T14:02:35;10.90;58.70
10538;DHT22;5317;49.048;8.468;2023-11-22T14:05:03;10.90;59.10
10538;DHT22;5317;49.048;8.468;2023-11-22T14:07:33;10.90;58.80
10538;DHT22;5317;49.048;8.468;2023-11-22T14:10:00;11.00;58.90
10538;DHT22;5317;49.048;8.468;2023-11-22T14:12:28;10.90;59.00
10538;DHT22;5317;49.048;8.468;2023-11-22T14:14:56;10.90;58.60
10538;DHT22;5317;49.048;8.468;2023-11-22T14:17:24;10.90;58.70
10538;DHT22;5317;49.048;8.468;2023-11-22T14:19:52;11.00;58.60
10538;DHT22;5317;49.048;8.468;2023-11-22T14:22:21;10.90;58.70
10538;DHT22;5317;49.048;8.468;2023-11-22T14:24:48;10.90;58.30
10538;DHT22;5317;49.048;8.468;2023-11-22T14:27:16;10.90;58.20
10538;DHT22;5317;49.048;8.468;2023-11-22T14:29:43;10.90;58.40
10538;DHT22;5317;49.048;8.468;2023-11-22T14:32:13;10.90;58.10
10538;DHT22;5317;49.048;8.468;2023-11-22T14:34:42;10.90;57.70
10538;DHT22;5317;49.048;8.468;2023-11-22T14:37:10;10.90;57.70
10538;DHT22;5317;49.048;8.468;2023-11-22T14:39:37;10.90;57.80
10538;DHT22;5317;49.048;8.468;2023-11-22T14:42:04;10.90;58.00
10538;DHT22;5317;49.048;8.468;2023-11-22T14:44:33;10.90;58.00
10538;DHT22;5317;49.048;8.468;2023-11-22T14:47:00;11.00;58.70
10538;DHT22;5317;49.048;8.468;2023-11-22T14:49:31;10.90;58.10
10538;DHT22;5317;49.048;8.468;2023-11-22T14:52:00;10.90;58.10
10538;DHT22;5317;49.048;8.468;2023-11-22T14:54:27;10.80;58.30
10538;DHT22;5317;49.048;8.468;2023-11-22T14:56:54;10.80;58.90
10538;DHT22;5317;49.048;8.468;2023-11-22T14:59:23;10.80;58.80
10538;DHT22;5317;49.048;8.468;2023-11-22T15:01:51;10.70;59.00
10538;DHT22;5317;49.048;8.468;2023-11-22T15:04:21;10.70;58.60
10538;DHT22;5317;49.048;8.468;2023-11-22T15:06:48;10.70;58.40
10538;DHT22;5317;49.048;8.468;2023-11-22T15:09:17;10.70;58.30
10538;DHT22;5317;49.048;8.468;2023-11-22T15:11:44;10.60;58.20
10538;DHT22;5317;49.048;8.468;2023-11-22T15:14:12;10.60;58.00
10538;DHT22;5317;49.048;8.468;2023-11-22T15:16:41;10.60;58.40
10538;DHT22;5317;49.048;8.468;2023-11-22T15:19:08;10.60;57.80
10538;DHT22;5317;49.048;8.468;2023-11-22T15:21:36;10.50;57.90
10538;DHT22;5317;49.048;8.468;2023-11-22T15:24:03;10.50;58.20
10538;DHT22;5317;49.048;8.468;2023-11-22T15:26:31;10.50;58.20
10538;DHT22;5317;49.048;8.468;2023-11-22T15:28:59;10.50;58.00
10538;DHT22;5317;49.048;8.468;2023-11-22T15:31:26;10.50;58.10
10538;DHT22;5317;49.048;8.468;2023-11-22T15:33:53;10.50;57.80
10538;DHT22;5317;49.048;8.468;2023-11-22T15:36:20;10.50;58.50
10538;DHT22;5317;49.048;8.468;2023-11-22T15:38:47;10.40;59.10
10538;DHT22;5317;49.048;8.468;2023-11-22T15:41:14;10.40;59.20
10538;DHT22;5317;49.048;8.468;2023-11-22T15:43:42;10.40;59.40
10538;DHT22;5317;49.048;8.468;2023-11-22T15:46:10;10.30;58.60
10538;DHT22;5317;49.048;8.468;2023-11-22T15:48:38;10.40;58.90
10538;DHT22;5317;49.048;8.468;2023-11-22T15:51:04;10.30;59.30
10538;DHT22;5317;49.048;8.468;2023-11-22T15:53:32;10.30;59.60
10538;DHT22;5317;49.048;8.468;2023-11-22T15:55:59;10.30;59.60
10538;DHT22;5317;49.048;8.468;2023-11-22T15:58:26;10.20;59.20